weather.gov     
National Weather Service

Terminal Aerodrome Forecast
NWS Homepage
This page is being discontinued on March 12, 2014.
The same data is available at this site. Please update your bookmarks.
Thank you, and we apologize for the inconvenience.
Please send an email to SR-SRH.Webmaster@noaa.gov with any concerns.


Current Version
Previous Version:    01  02  03  04  05  06  07  08  09  10  11  12  13  14  15  16  17  18  19  20  21  22  23  24  25  26  27  28  29  30  
   31  
[Printable]
653
FTUS43 KMPX 240500
TAFAXN
TAF
KAXN 240520Z 2406/2506 12015G22KT P6SM SCT020 OVC040
     FM240800 12010KT 6SM -RA BR SCT015 BKN020
     FM241200 15007KT 4SM -RA BR BKN015
      TEMPO 2414/2418 2SM -RA BR BKN008
     FM241800 33006KT 6SM -RA BR SCT010 BKN020
     FM242100 31006KT P6SM SCT020 BKN050
     FM250200 27005KT P6SM SCT080=


U.S. Dept. of Commerce
NOAA National Weather Service
1325 East West Highway
Silver Spring, MD 20910
E-mail: w-nws.webmaster@noaa.gov
Page last modified: May 16, 2007
NATIONAL WEATHER SERVICE: for Safety, for Work, for Fun - FOR LIFE